sensor_id;sensor_type;location;lat;lon;timestamp;temperature;humidity
11764;DHT22;5939;56.522;14.950;2024-03-02T00:00:09;7.00;99.90
11764;DHT22;5939;56.522;14.950;2024-03-02T00:02:44;7.00;99.90
11764;DHT22;5939;56.522;14.950;2024-03-02T00:05:20;7.00;99.90
11764;DHT22;5939;56.522;14.950;2024-03-02T00:07:57;7.00;99.90
11764;DHT22;5939;56.522;14.950;2024-03-02T00:10:35;7.00;99.90
11764;DHT22;5939;56.522;14.950;2024-03-02T00:13:02;7.00;99.90
11764;DHT22;5939;56.522;14.950;2024-03-02T00:15:48;7.00;99.90
11764;DHT22;5939;56.522;14.950;2024-03-02T00:18:19;7.00;99.90
11764;DHT22;5939;56.522;14.950;2024-03-02T00:20:45;7.00;99.90
11764;DHT22;5939;56.522;14.950;2024-03-02T00:23:15;7.00;99.90
11764;DHT22;5939;56.522;14.950;2024-03-02T00:25:42;7.00;99.90
11764;DHT22;5939;56.522;14.950;2024-03-02T00:28:19;7.00;99.90
11764;DHT22;5939;56.522;14.950;2024-03-02T00:33:32;7.00;99.90
11764;DHT22;5939;56.522;14.950;2024-03-02T00:35:59;7.00;99.90
11764;DHT22;5939;56.522;14.950;2024-03-02T00:38:26;6.90;99.90
11764;DHT22;5939;56.522;14.950;2024-03-02T00:40:52;7.00;99.90
11764;DHT22;5939;56.522;14.950;2024-03-02T00:45:55;7.00;99.90
11764;DHT22;5939;56.522;14.950;2024-03-02T00:48:20;6.90;99.90
11764;DHT22;5939;56.522;14.950;2024-03-02T00:50:49;7.00;99.90
11764;DHT22;5939;56.522;14.950;2024-03-02T00:53:16;6.90;99.90
11764;DHT22;5939;56.522;14.950;2024-03-02T00:55:42;6.90;99.90
11764;DHT22;5939;56.522;14.950;2024-03-02T00:58:12;6.90;99.90
11764;DHT22;5939;56.522;14.950;2024-03-02T01:00:38;6.90;99.90
11764;DHT22;5939;56.522;14.950;2024-03-02T01:03:04;6.90;99.90
11764;DHT22;5939;56.522;14.950;2024-03-02T01:05:29;6.90;99.90
11764;DHT22;5939;56.522;14.950;2024-03-02T01:07:55;6.90;99.90
11764;DHT22;5939;56.522;14.950;2024-03-02T01:10:21;6.90;99.90
11764;DHT22;5939;56.522;14.950;2024-03-02T01:12:46;6.90;99.90
11764;DHT22;5939;56.522;14.950;2024-03-02T01:15:12;6.90;99.90
11764;DHT22;5939;56.522;14.950;2024-03-02T01:17:38;6.90;99.90
11764;DHT22;5939;56.522;14.950;2024-03-02T01:20:04;6.90;99.90
11764;DHT22;5939;56.522;14.950;2024-03-02T01:22:29;6.90;99.90
11764;DHT22;5939;56.522;14.950;2024-03-02T01:24:56;6.90;99.90
11764;DHT22;5939;56.522;14.950;2024-03-02T01:27:22;6.90;99.90
11764;DHT22;5939;56.522;14.950;2024-03-02T01:29:47;6.90;99.90
11764;DHT22;5939;56.522;14.950;2024-03-02T01:32:13;6.80;99.90
11764;DHT22;5939;56.522;14.950;2024-03-02T01:34:38;6.90;99.90
11764;DHT22;5939;56.522;14.950;2024-03-02T01:37:04;6.80;99.90
11764;DHT22;5939;56.522;14.950;2024-03-02T01:39:30;6.90;99.90
11764;DHT22;5939;56.522;14.950;2024-03-02T01:41:55;6.80;99.90
11764;DHT22;5939;56.522;14.950;2024-03-02T01:44:21;6.80;99.90
11764;DHT22;5939;56.522;14.950;2024-03-02T01:46:47;6.80;99.90
11764;DHT22;5939;56.522;14.950;2024-03-02T01:49:12;6.80;99.90
11764;DHT22;5939;56.522;14.950;2024-03-02T01:51:38;6.80;99.90
11764;DHT22;5939;56.522;14.950;2024-03-02T01:54:04;6.80;99.90
11764;DHT22;5939;56.522;14.950;2024-03-02T01:56:29;6.80;99.90
11764;DHT22;5939;56.522;14.950;2024-03-02T01:58:55;6.80;99.90
11764;DHT22;5939;56.522;14.950;2024-03-02T02:01:21;6.80;99.90
11764;DHT22;5939;56.522;14.950;2024-03-02T02:03:46;6.80;99.90
11764;DHT22;5939;56.522;14.950;2024-03-02T02:06:12;6.80;99.90
11764;DHT22;5939;56.522;14.950;2024-03-02T02:08:38;6.80;99.90
11764;DHT22;5939;56.522;14.950;2024-03-02T02:11:03;6.80;99.90
11764;DHT22;5939;56.522;14.950;2024-03-02T02:13:29;6.80;99.90
11764;DHT22;5939;56.522;14.950;2024-03-02T02:15:55;6.80;99.90
11764;DHT22;5939;56.522;14.950;2024-03-02T02:18:20;6.80;99.90
11764;DHT22;5939;56.522;14.950;2024-03-02T02:20:46;6.80;99.90
11764;DHT22;5939;56.522;14.950;2024-03-02T02:23:11;6.80;99.90
11764;DHT22;5939;56.522;14.950;2024-03-02T02:25:38;6.80;99.90
11764;DHT22;5939;56.522;14.950;2024-03-02T02:28:04;6.80;99.90
11764;DHT22;5939;56.522;14.950;2024-03-02T02:30:31;6.80;99.90
11764;DHT22;5939;56.522;14.950;2024-03-02T02:32:57;6.80;99.90
11764;DHT22;5939;56.522;14.950;2024-03-02T02:35:23;6.80;99.90
11764;DHT22;5939;56.522;14.950;2024-03-02T02:37:53;6.80;99.90
11764;DHT22;5939;56.522;14.950;2024-03-02T02:40:19;6.70;99.90
11764;DHT22;5939;56.522;14.950;2024-03-02T02:42:45;6.70;99.90
11764;DHT22;5939;56.522;14.950;2024-03-02T02:45:11;6.80;99.90
11764;DHT22;5939;56.522;14.950;2024-03-02T02:47:38;6.70;99.90
11764;DHT22;5939;56.522;14.950;2024-03-02T02:50:06;6.70;99.90
11764;DHT22;5939;56.522;14.950;2024-03-02T02:52:33;6.70;99.90
11764;DHT22;5939;56.522;14.950;2024-03-02T02:54:59;6.70;99.90
11764;DHT22;5939;56.522;14.950;2024-03-02T02:57:25;6.70;99.90
11764;DHT22;5939;56.522;14.950;2024-03-02T02:59:50;6.70;99.90
11764;DHT22;5939;56.522;14.950;2024-03-02T03:02:16;6.70;99.90
11764;DHT22;5939;56.522;14.950;2024-03-02T03:04:41;6.70;99.90
11764;DHT22;5939;56.522;14.950;2024-03-02T03:07:07;6.70;99.90
11764;DHT22;5939;56.522;14.950;2024-03-02T03:09:33;6.70;99.90
11764;DHT22;5939;56.522;14.950;2024-03-02T03:11:58;6.70;99.90
11764;DHT22;5939;56.522;14.950;2024-03-02T03:14:24;6.70;99.90
11764;DHT22;5939;56.522;14.950;2024-03-02T03:16:50;6.70;99.90
11764;DHT22;5939;56.522;14.950;2024-03-02T03:19:16;6.70;99.90
11764;DHT22;5939;56.522;14.950;2024-03-02T03:21:43;6.70;99.90
11764;DHT22;5939;56.522;14.950;2024-03-02T03:24:09;6.70;99.90
11764;DHT22;5939;56.522;14.950;2024-03-02T03:26:36;6.70;99.90
11764;DHT22;5939;56.522;14.950;2024-03-02T03:29:02;6.70;99.90
11764;DHT22;5939;56.522;14.950;2024-03-02T03:31:29;6.70;99.90
11764;DHT22;5939;56.522;14.950;2024-03-02T03:33:54;6.70;99.90
11764;DHT22;5939;56.522;14.950;2024-03-02T03:36:20;6.70;99.90
11764;DHT22;5939;56.522;14.950;2024-03-02T03:38:46;6.70;99.90
11764;DHT22;5939;56.522;14.950;2024-03-02T03:41:11;6.70;99.90
11764;DHT22;5939;56.522;14.950;2024-03-02T03:43:37;6.70;99.90
11764;DHT22;5939;56.522;14.950;2024-03-02T03:46:03;6.70;99.90
11764;DHT22;5939;56.522;14.950;2024-03-02T03:48:28;6.60;99.90
11764;DHT22;5939;56.522;14.950;2024-03-02T03:50:56;6.70;99.90
11764;DHT22;5939;56.522;14.950;2024-03-02T03:53:22;6.70;99.90
11764;DHT22;5939;56.522;14.950;2024-03-02T03:55:48;6.60;99.90
11764;DHT22;5939;56.522;14.950;2024-03-02T03:58:15;6.70;99.90
11764;DHT22;5939;56.522;14.950;2024-03-02T04:00:42;6.60;99.90
11764;DHT22;5939;56.522;14.950;2024-03-02T04:03:08;6.60;99.90
11764;DHT22;5939;56.522;14.950;2024-03-02T04:05:33;6.60;99.90
11764;DHT22;5939;56.522;14.950;2024-03-02T04:07:59;6.60;99.90
11764;DHT22;5939;56.522;14.950;2024-03-02T04:10:26;6.60;99.90
11764;DHT22;5939;56.522;14.950;2024-03-02T04:12:51;6.60;99.90
11764;DHT22;5939;56.522;14.950;2024-03-02T04:15:17;6.60;99.90
11764;DHT22;5939;56.522;14.950;2024-03-02T04:17:44;6.60;99.90
11764;DHT22;5939;56.522;14.950;2024-03-02T04:20:10;6.60;99.90
11764;DHT22;5939;56.522;14.950;2024-03-02T04:22:38;6.60;99.90
11764;DHT22;5939;56.522;14.950;2024-03-02T04:25:04;6.60;99.90
11764;DHT22;5939;56.522;14.950;2024-03-02T04:27:30;6.60;99.90
11764;DHT22;5939;56.522;14.950;2024-03-02T04:29:57;6.60;99.90
11764;DHT22;5939;56.522;14.950;2024-03-02T04:32:23;6.60;99.90
11764;DHT22;5939;56.522;14.950;2024-03-02T04:34:48;6.60;99.90
11764;DHT22;5939;56.522;14.950;2024-03-02T04:37:14;6.60;99.90
11764;DHT22;5939;56.522;14.950;2024-03-02T04:39:40;6.60;99.90
11764;DHT22;5939;56.522;14.950;2024-03-02T04:42:06;6.60;99.90
11764;DHT22;5939;56.522;14.950;2024-03-02T04:44:31;6.60;99.90
11764;DHT22;5939;56.522;14.950;2024-03-02T04:46:57;6.60;99.90
11764;DHT22;5939;56.522;14.950;2024-03-02T04:49:23;6.60;99.90
11764;DHT22;5939;56.522;14.950;2024-03-02T04:51:49;6.60;99.90
11764;DHT22;5939;56.522;14.950;2024-03-02T04:54:14;6.60;99.90
11764;DHT22;5939;56.522;14.950;2024-03-02T04:56:40;6.50;99.90
11764;DHT22;5939;56.522;14.950;2024-03-02T04:59:18;6.60;99.90
11764;DHT22;5939;56.522;14.950;2024-03-02T05:01:44;6.60;99.90
11764;DHT22;5939;56.522;14.950;2024-03-02T05:04:10;6.50;99.90
11764;DHT22;5939;56.522;14.950;2024-03-02T05:06:39;6.50;99.90
11764;DHT22;5939;56.522;14.950;2024-03-02T05:09:09;6.50;99.90
11764;DHT22;5939;56.522;14.950;2024-03-02T05:11:35;6.50;99.90
11764;DHT22;5939;56.522;14.950;2024-03-02T05:14:04;6.50;99.90
11764;DHT22;5939;56.522;14.950;2024-03-02T05:16:36;6.50;99.90
11764;DHT22;5939;56.522;14.950;2024-03-02T05:19:05;6.50;99.90
11764;DHT22;5939;56.522;14.950;2024-03-02T05:21:34;6.50;99.90
11764;DHT22;5939;56.522;14.950;2024-03-02T05:24:00;6.50;99.90
11764;DHT22;5939;56.522;14.950;2024-03-02T05:26:25;6.50;99.90
11764;DHT22;5939;56.522;14.950;2024-03-02T05:28:51;6.50;99.90
11764;DHT22;5939;56.522;14.950;2024-03-02T05:31:17;6.50;99.90
11764;DHT22;5939;56.522;14.950;2024-03-02T05:33:43;6.50;99.90
11764;DHT22;5939;56.522;14.950;2024-03-02T05:36:09;6.50;99.90
11764;DHT22;5939;56.522;14.950;2024-03-02T05:38:35;6.50;99.90
11764;DHT22;5939;56.522;14.950;2024-03-02T05:41:01;6.50;99.90
11764;DHT22;5939;56.522;14.950;2024-03-02T05:43:27;6.50;99.90
11764;DHT22;5939;56.522;14.950;2024-03-02T05:45:52;6.50;99.90
11764;DHT22;5939;56.522;14.950;2024-03-02T05:48:18;6.50;99.90
11764;DHT22;5939;56.522;14.950;2024-03-02T05:50:44;6.50;99.90
11764;DHT22;5939;56.522;14.950;2024-03-02T05:53:09;6.50;99.90
11764;DHT22;5939;56.522;14.950;2024-03-02T05:55:35;6.50;99.90
11764;DHT22;5939;56.522;14.950;2024-03-02T05:58:01;6.50;99.90
11764;DHT22;5939;56.522;14.950;2024-03-02T06:00:32;6.50;99.90
11764;DHT22;5939;56.522;14.950;2024-03-02T06:02:58;6.50;99.90
11764;DHT22;5939;56.522;14.950;2024-03-02T06:05:24;6.50;99.90
11764;DHT22;5939;56.522;14.950;2024-03-02T06:07:50;6.50;99.90
11764;DHT22;5939;56.522;14.950;2024-03-02T06:10:16;6.50;99.90
11764;DHT22;5939;56.522;14.950;2024-03-02T06:12:41;6.40;99.90
11764;DHT22;5939;56.522;14.950;2024-03-02T06:15:07;6.50;99.90
11764;DHT22;5939;56.522;14.950;2024-03-02T06:17:35;6.50;99.90
11764;DHT22;5939;56.522;14.950;2024-03-02T06:20:01;6.40;99.90
11764;DHT22;5939;56.522;14.950;2024-03-02T06:22:26;6.40;99.90
11764;DHT22;5939;56.522;14.950;2024-03-02T06:24:52;6.40;99.90
11764;DHT22;5939;56.522;14.950;2024-03-02T06:27:18;6.40;99.90
11764;DHT22;5939;56.522;14.950;2024-03-02T06:29:43;6.40;99.90
11764;DHT22;5939;56.522;14.950;2024-03-02T06:32:09;6.40;99.90
11764;DHT22;5939;56.522;14.950;2024-03-02T06:34:34;6.40;99.90
11764;DHT22;5939;56.522;14.950;2024-03-02T06:37:00;6.40;99.90
11764;DHT22;5939;56.522;14.950;2024-03-02T06:39:26;6.40;99.90
11764;DHT22;5939;56.522;14.950;2024-03-02T06:41:52;6.40;99.90
11764;DHT22;5939;56.522;14.950;2024-03-02T06:44:17;6.40;99.90
11764;DHT22;5939;56.522;14.950;2024-03-02T06:46:43;6.40;99.90
11764;DHT22;5939;56.522;14.950;2024-03-02T06:49:09;6.40;99.90
11764;DHT22;5939;56.522;14.950;2024-03-02T06:51:36;6.40;99.90
11764;DHT22;5939;56.522;14.950;2024-03-02T06:54:02;6.40;99.90
11764;DHT22;5939;56.522;14.950;2024-03-02T06:56:27;6.40;99.90
11764;DHT22;5939;56.522;14.950;2024-03-02T06:58:53;6.40;99.90
11764;DHT22;5939;56.522;14.950;2024-03-02T07:01:19;6.40;99.90
11764;DHT22;5939;56.522;14.950;2024-03-02T07:03:46;6.40;99.90
11764;DHT22;5939;56.522;14.950;2024-03-02T07:06:11;6.40;99.90
11764;DHT22;5939;56.522;14.950;2024-03-02T07:08:37;6.40;99.90
11764;DHT22;5939;56.522;14.950;2024-03-02T07:11:03;6.40;99.90
11764;DHT22;5939;56.522;14.950;2024-03-02T07:13:28;6.40;99.90
11764;DHT22;5939;56.522;14.950;2024-03-02T07:15:54;6.40;99.90
11764;DHT22;5939;56.522;14.950;2024-03-02T07:18:32;6.40;99.90
11764;DHT22;5939;56.522;14.950;2024-03-02T07:20:59;6.40;99.90
11764;DHT22;5939;56.522;14.950;2024-03-02T07:23:26;6.40;99.90
11764;DHT22;5939;56.522;14.950;2024-03-02T07:25:56;6.30;99.90
11764;DHT22;5939;56.522;14.950;2024-03-02T07:28:25;6.30;99.90
11764;DHT22;5939;56.522;14.950;2024-03-02T07:31:01;6.40;99.90
11764;DHT22;5939;56.522;14.950;2024-03-02T07:33:27;6.40;99.90
11764;DHT22;5939;56.522;14.950;2024-03-02T07:35:54;6.40;99.90
11764;DHT22;5939;56.522;14.950;2024-03-02T07:38:21;6.40;99.90
11764;DHT22;5939;56.522;14.950;2024-03-02T07:40:47;6.40;99.90
11764;DHT22;5939;56.522;14.950;2024-03-02T07:43:16;6.30;99.90
11764;DHT22;5939;56.522;14.950;2024-03-02T07:45:42;6.40;99.90
11764;DHT22;5939;56.522;14.950;2024-03-02T07:48:07;6.30;99.90
11764;DHT22;5939;56.522;14.950;2024-03-02T07:50:33;6.40;99.90
11764;DHT22;5939;56.522;14.950;2024-03-02T07:53:01;6.30;99.90
11764;DHT22;5939;56.522;14.950;2024-03-02T07:55:26;6.40;99.90
11764;DHT22;5939;56.522;14.950;2024-03-02T07:57:52;6.40;99.90
11764;DHT22;5939;56.522;14.950;2024-03-02T08:00:18;6.40;99.90
11764;DHT22;5939;56.522;14.950;2024-03-02T08:02:44;6.40;99.90
11764;DHT22;5939;56.522;14.950;2024-03-02T08:05:10;6.40;99.90
11764;DHT22;5939;56.522;14.950;2024-03-02T08:07:35;6.40;99.90
11764;DHT22;5939;56.522;14.950;2024-03-02T08:10:01;6.30;99.90
11764;DHT22;5939;56.522;14.950;2024-03-02T08:12:27;6.40;99.90
11764;DHT22;5939;56.522;14.950;2024-03-02T08:14:52;6.40;99.90
11764;DHT22;5939;56.522;14.950;2024-03-02T08:17:18;6.30;99.90
11764;DHT22;5939;56.522;14.950;2024-03-02T08:19:44;6.40;99.90
11764;DHT22;5939;56.522;14.950;2024-03-02T08:22:10;6.40;99.90
11764;DHT22;5939;56.522;14.950;2024-03-02T08:24:36;6.40;99.90
11764;DHT22;5939;56.522;14.950;2024-03-02T08:27:01;6.40;99.90
11764;DHT22;5939;56.522;14.950;2024-03-02T08:29:27;6.40;99.90
11764;DHT22;5939;56.522;14.950;2024-03-02T08:31:54;6.40;99.90
11764;DHT22;5939;56.522;14.950;2024-03-02T08:34:19;6.30;99.90
11764;DHT22;5939;56.522;14.950;2024-03-02T08:36:46;6.40;99.90
11764;DHT22;5939;56.522;14.950;2024-03-02T08:39:12;6.30;99.90
11764;DHT22;5939;56.522;14.950;2024-03-02T08:41:50;6.40;99.90
11764;DHT22;5939;56.522;14.950;2024-03-02T08:44:17;6.30;99.90
11764;DHT22;5939;56.522;14.950;2024-03-02T08:46:43;6.40;99.90
11764;DHT22;5939;56.522;14.950;2024-03-02T08:49:09;6.40;99.90
11764;DHT22;5939;56.522;14.950;2024-03-02T08:51:35;6.40;99.90
11764;DHT22;5939;56.522;14.950;2024-03-02T08:54:01;6.40;99.90
11764;DHT22;5939;56.522;14.950;2024-03-02T08:56:26;6.40;99.90
11764;DHT22;5939;56.522;14.950;2024-03-02T08:58:52;6.30;99.90
11764;DHT22;5939;56.522;14.950;2024-03-02T09:01:18;6.40;99.90
11764;DHT22;5939;56.522;14.950;2024-03-02T09:03:47;6.40;99.90
11764;DHT22;5939;56.522;14.950;2024-03-02T09:06:14;6.40;99.90
11764;DHT22;5939;56.522;14.950;2024-03-02T09:08:42;6.30;99.90
11764;DHT22;5939;56.522;14.950;2024-03-02T09:11:08;6.40;99.90
11764;DHT22;5939;56.522;14.950;2024-03-02T09:13:35;6.40;99.90
11764;DHT22;5939;56.522;14.950;2024-03-02T09:16:01;6.40;99.90
11764;DHT22;5939;56.522;14.950;2024-03-02T09:18:27;6.40;99.90
11764;DHT22;5939;56.522;14.950;2024-03-02T09:20:52;6.30;99.90
11764;DHT22;5939;56.522;14.950;2024-03-02T09:23:18;6.30;99.90
11764;DHT22;5939;56.522;14.950;2024-03-02T09:25:43;6.40;99.90
11764;DHT22;5939;56.522;14.950;2024-03-02T09:28:10;6.30;99.90
11764;DHT22;5939;56.522;14.950;2024-03-02T09:30:36;6.30;99.90
11764;DHT22;5939;56.522;14.950;2024-03-02T09:33:02;6.30;99.90
11764;DHT22;5939;56.522;14.950;2024-03-02T09:35:28;6.40;99.90
11764;DHT22;5939;56.522;14.950;2024-03-02T09:37:55;6.30;99.90
11764;DHT22;5939;56.522;14.950;2024-03-02T09:40:22;6.40;99.90
11764;DHT22;5939;56.522;14.950;2024-03-02T09:42:48;6.40;99.90
11764;DHT22;5939;56.522;14.950;2024-03-02T09:45:23;6.40;99.90
11764;DHT22;5939;56.522;14.950;2024-03-02T09:47:49;6.40;99.90
11764;DHT22;5939;56.522;14.950;2024-03-02T09:50:15;6.40;99.90
11764;DHT22;5939;56.522;14.950;2024-03-02T09:52:42;6.30;99.90
11764;DHT22;5939;56.522;14.950;2024-03-02T09:55:09;6.40;99.90
11764;DHT22;5939;56.522;14.950;2024-03-02T09:57:35;6.30;99.90
11764;DHT22;5939;56.522;14.950;2024-03-02T10:00:00;6.40;99.90
11764;DHT22;5939;56.522;14.950;2024-03-02T10:02:26;6.40;99.90
11764;DHT22;5939;56.522;14.950;2024-03-02T10:04:52;6.40;99.90
11764;DHT22;5939;56.522;14.950;2024-03-02T10:07:19;6.40;99.90
11764;DHT22;5939;56.522;14.950;2024-03-02T10:09:47;6.40;99.90
11764;DHT22;5939;56.522;14.950;2024-03-02T10:12:14;6.40;99.90
11764;DHT22;5939;56.522;14.950;2024-03-02T10:14:41;6.40;99.90
11764;DHT22;5939;56.522;14.950;2024-03-02T10:17:11;6.40;99.90
11764;DHT22;5939;56.522;14.950;2024-03-02T10:19:37;6.40;99.90
11764;DHT22;5939;56.522;14.950;2024-03-02T10:22:05;6.40;99.90
11764;DHT22;5939;56.522;14.950;2024-03-02T10:24:42;6.40;99.90
11764;DHT22;5939;56.522;14.950;2024-03-02T10:27:31;6.40;99.90
11764;DHT22;5939;56.522;14.950;2024-03-02T10:29:56;6.40;99.90
11764;DHT22;5939;56.522;14.950;2024-03-02T10:32:22;6.40;99.90
11764;DHT22;5939;56.522;14.950;2024-03-02T10:34:48;6.40;99.90
11764;DHT22;5939;56.522;14.950;2024-03-02T10:37:16;6.40;99.90
11764;DHT22;5939;56.522;14.950;2024-03-02T10:39:42;6.50;99.90
11764;DHT22;5939;56.522;14.950;2024-03-02T10:42:09;6.50;99.90
11764;DHT22;5939;56.522;14.950;2024-03-02T10:44:35;6.50;99.90
11764;DHT22;5939;56.522;14.950;2024-03-02T10:47:04;6.50;99.90
11764;DHT22;5939;56.522;14.950;2024-03-02T10:49:32;6.50;99.90
11764;DHT22;5939;56.522;14.950;2024-03-02T10:52:01;6.50;99.90
11764;DHT22;5939;56.522;14.950;2024-03-02T10:54:27;6.50;99.90
11764;DHT22;5939;56.522;14.950;2024-03-02T10:56:58;6.50;99.90
11764;DHT22;5939;56.522;14.950;2024-03-02T11:01:59;6.50;99.90
11764;DHT22;5939;56.522;14.950;2024-03-02T11:04:29;6.50;99.90
11764;DHT22;5939;56.522;14.950;2024-03-02T11:07:00;6.50;99.90
11764;DHT22;5939;56.522;14.950;2024-03-02T11:09:27;6.50;99.90
11764;DHT22;5939;56.522;14.950;2024-03-02T11:12:19;6.60;99.90
11764;DHT22;5939;56.522;14.950;2024-03-02T11:14:48;6.60;99.90
11764;DHT22;5939;56.522;14.950;2024-03-02T11:17:16;6.60;99.90
11764;DHT22;5939;56.522;14.950;2024-03-02T11:19:42;6.60;99.90
11764;DHT22;5939;56.522;14.950;2024-03-02T11:22:09;6.60;99.90
11764;DHT22;5939;56.522;14.950;2024-03-02T11:24:35;6.60;99.90
11764;DHT22;5939;56.522;14.950;2024-03-02T11:27:07;6.60;99.90
11764;DHT22;5939;56.522;14.950;2024-03-02T11:32:18;6.60;99.90
11764;DHT22;5939;56.522;14.950;2024-03-02T11:34:48;6.70;99.90
11764;DHT22;5939;56.522;14.950;2024-03-02T11:37:15;6.70;99.90
11764;DHT22;5939;56.522;14.950;2024-03-02T11:39:44;6.70;99.90
11764;DHT22;5939;56.522;14.950;2024-03-02T11:42:11;6.70;99.90
11764;DHT22;5939;56.522;14.950;2024-03-02T11:44:38;6.80;99.90
11764;DHT22;5939;56.522;14.950;2024-03-02T11:47:08;6.80;99.90
11764;DHT22;5939;56.522;14.950;2024-03-02T11:49:49;6.80;99.90
11764;DHT22;5939;56.522;14.950;2024-03-02T11:52:17;6.80;99.90
11764;DHT22;5939;56.522;14.950;2024-03-02T11:54:45;6.80;99.90
11764;DHT22;5939;56.522;14.950;2024-03-02T11:57:16;6.80;99.90
11764;DHT22;5939;56.522;14.950;2024-03-02T11:59:43;6.80;99.90
11764;DHT22;5939;56.522;14.950;2024-03-02T12:02:18;6.90;99.90
11764;DHT22;5939;56.522;14.950;2024-03-02T12:04:45;6.90;99.90
11764;DHT22;5939;56.522;14.950;2024-03-02T12:07:11;6.90;99.90
11764;DHT22;5939;56.522;14.950;2024-03-02T12:09:37;6.90;99.90
11764;DHT22;5939;56.522;14.950;2024-03-02T12:14:33;7.00;99.90
11764;DHT22;5939;56.522;14.950;2024-03-02T12:16:59;7.00;99.90
11764;DHT22;5939;56.522;14.950;2024-03-02T12:19:26;7.00;99.90
11764;DHT22;5939;56.522;14.950;2024-03-02T12:21:53;7.00;99.90
11764;DHT22;5939;56.522;14.950;2024-03-02T12:24:19;7.10;99.90
11764;DHT22;5939;56.522;14.950;2024-03-02T12:26:46;7.10;99.90
11764;DHT22;5939;56.522;14.950;2024-03-02T12:29:13;7.10;99.90
11764;DHT22;5939;56.522;14.950;2024-03-02T12:31:43;7.10;99.90
11764;DHT22;5939;56.522;14.950;2024-03-02T12:34:13;7.10;99.90
11764;DHT22;5939;56.522;14.950;2024-03-02T12:36:39;7.10;99.90
11764;DHT22;5939;56.522;14.950;2024-03-02T12:39:07;7.20;99.90
11764;DHT22;5939;56.522;14.950;2024-03-02T12:41:36;7.20;99.90
11764;DHT22;5939;56.522;14.950;2024-03-02T12:44:03;7.20;99.90
11764;DHT22;5939;56.522;14.950;2024-03-02T12:46:28;7.20;99.90
11764;DHT22;5939;56.522;14.950;2024-03-02T12:48:54;7.30;99.90
11764;DHT22;5939;56.522;14.950;2024-03-02T12:51:20;7.30;99.90
11764;DHT22;5939;56.522;14.950;2024-03-02T12:53:52;7.30;99.90
11764;DHT22;5939;56.522;14.950;2024-03-02T12:56:18;7.30;99.90
11764;DHT22;5939;56.522;14.950;2024-03-02T12:58:44;7.30;99.90
11764;DHT22;5939;56.522;14.950;2024-03-02T13:01:10;7.40;99.90
11764;DHT22;5939;56.522;14.950;2024-03-02T13:03:39;7.40;99.90
11764;DHT22;5939;56.522;14.950;2024-03-02T13:06:08;7.40;99.90
11764;DHT22;5939;56.522;14.950;2024-03-02T13:08:34;7.40;99.90
11764;DHT22;5939;56.522;14.950;2024-03-02T13:11:00;7.40;99.90
11764;DHT22;5939;56.522;14.950;2024-03-02T13:13:26;7.40;99.90
11764;DHT22;5939;56.522;14.950;2024-03-02T13:15:55;7.40;99.90
11764;DHT22;5939;56.522;14.950;2024-03-02T13:18:22;7.50;99.90
11764;DHT22;5939;56.522;14.950;2024-03-02T13:20:48;7.50;99.90
11764;DHT22;5939;56.522;14.950;2024-03-02T13:23:13;7.50;99.90
11764;DHT22;5939;56.522;14.950;2024-03-02T13:25:39;7.50;99.90
11764;DHT22;5939;56.522;14.950;2024-03-02T13:28:06;7.50;99.90
11764;DHT22;5939;56.522;14.950;2024-03-02T13:30:32;7.50;99.90
11764;DHT22;5939;56.522;14.950;2024-03-02T13:32:58;7.60;99.90
11764;DHT22;5939;56.522;14.950;2024-03-02T13:35:23;7.60;99.90
11764;DHT22;5939;56.522;14.950;2024-03-02T13:37:49;7.60;99.90
11764;DHT22;5939;56.522;14.950;2024-03-02T13:40:15;7.60;99.90
11764;DHT22;5939;56.522;14.950;2024-03-02T13:42:45;7.60;99.90
11764;DHT22;5939;56.522;14.950;2024-03-02T13:45:12;7.60;99.90
11764;DHT22;5939;56.522;14.950;2024-03-02T13:47:38;7.60;99.90
11764;DHT22;5939;56.522;14.950;2024-03-02T13:50:04;7.60;99.90
11764;DHT22;5939;56.522;14.950;2024-03-02T13:52:31;7.70;99.90
11764;DHT22;5939;56.522;14.950;2024-03-02T13:54:56;7.70;99.90
11764;DHT22;5939;56.522;14.950;2024-03-02T13:57:22;7.70;99.90
11764;DHT22;5939;56.522;14.950;2024-03-02T13:59:48;7.70;99.90
11764;DHT22;5939;56.522;14.950;2024-03-02T14:02:15;7.70;99.90
11764;DHT22;5939;56.522;14.950;2024-03-02T14:04:40;7.70;99.90
11764;DHT22;5939;56.522;14.950;2024-03-02T14:07:07;7.70;99.90
11764;DHT22;5939;56.522;14.950;2024-03-02T14:09:33;7.70;99.90
11764;DHT22;5939;56.522;14.950;2024-03-02T14:11:58;7.80;99.90
11764;DHT22;5939;56.522;14.950;2024-03-02T14:14:26;7.80;99.90
11764;DHT22;5939;56.522;14.950;2024-03-02T14:16:53;7.80;99.90
11764;DHT22;5939;56.522;14.950;2024-03-02T14:19:20;7.80;99.90
11764;DHT22;5939;56.522;14.950;2024-03-02T14:21:47;7.80;99.90
11764;DHT22;5939;56.522;14.950;2024-03-02T14:24:13;7.80;99.90
11764;DHT22;5939;56.522;14.950;2024-03-02T14:26:39;7.80;99.90
11764;DHT22;5939;56.522;14.950;2024-03-02T14:29:06;7.80;99.90
11764;DHT22;5939;56.522;14.950;2024-03-02T14:31:32;7.80;99.90
11764;DHT22;5939;56.522;14.950;2024-03-02T14:33:58;7.80;99.90
11764;DHT22;5939;56.522;14.950;2024-03-02T14:36:24;7.90;99.90
11764;DHT22;5939;56.522;14.950;2024-03-02T14:38:49;7.80;99.90
11764;DHT22;5939;56.522;14.950;2024-03-02T14:41:15;7.90;99.90
11764;DHT22;5939;56.522;14.950;2024-03-02T14:43:41;7.80;99.90
11764;DHT22;5939;56.522;14.950;2024-03-02T14:46:07;7.90;99.90
11764;DHT22;5939;56.522;14.950;2024-03-02T14:48:36;7.90;99.90
11764;DHT22;5939;56.522;14.950;2024-03-02T14:51:02;7.90;99.90
11764;DHT22;5939;56.522;14.950;2024-03-02T14:53:28;7.90;99.90
11764;DHT22;5939;56.522;14.950;2024-03-02T14:55:54;7.90;99.90
11764;DHT22;5939;56.522;14.950;2024-03-02T14:58:19;7.90;99.90
11764;DHT22;5939;56.522;14.950;2024-03-02T15:00:45;7.90;99.90
11764;DHT22;5939;56.522;14.950;2024-03-02T15:03:11;7.90;99.90
11764;DHT22;5939;56.522;14.950;2024-03-02T15:05:37;8.00;99.90
11764;DHT22;5939;56.522;14.950;2024-03-02T15:08:04;8.00;99.90
11764;DHT22;5939;56.522;14.950;2024-03-02T15:10:30;7.90;99.90
11764;DHT22;5939;56.522;14.950;2024-03-02T15:12:57;8.00;99.90
11764;DHT22;5939;56.522;14.950;2024-03-02T15:15:23;8.00;99.90
11764;DHT22;5939;56.522;14.950;2024-03-02T15:17:48;8.00;99.90
11764;DHT22;5939;56.522;14.950;2024-03-02T15:20:14;8.00;99.90
11764;DHT22;5939;56.522;14.950;2024-03-02T15:22:41;8.00;99.90
11764;DHT22;5939;56.522;14.950;2024-03-02T15:25:07;8.00;99.90
11764;DHT22;5939;56.522;14.950;2024-03-02T15:27:32;8.00;99.90
11764;DHT22;5939;56.522;14.950;2024-03-02T15:29:58;8.00;99.90
11764;DHT22;5939;56.522;14.950;2024-03-02T15:32:24;8.00;99.90
11764;DHT22;5939;56.522;14.950;2024-03-02T15:34:52;8.00;99.90
11764;DHT22;5939;56.522;14.950;2024-03-02T15:37:18;8.00;99.90
11764;DHT22;5939;56.522;14.950;2024-03-02T15:39:44;8.00;99.90
11764;DHT22;5939;56.522;14.950;2024-03-02T15:42:10;8.00;99.90
11764;DHT22;5939;56.522;14.950;2024-03-02T15:44:35;8.00;99.90
11764;DHT22;5939;56.522;14.950;2024-03-02T15:47:01;8.00;99.90
11764;DHT22;5939;56.522;14.950;2024-03-02T15:49:27;8.00;99.90
11764;DHT22;5939;56.522;14.950;2024-03-02T15:51:53;8.00;99.90
11764;DHT22;5939;56.522;14.950;2024-03-02T15:54:19;8.10;99.90